YBCG/OOL METAR and TAF weather

Enter ICAO airport designator
Station Type Date Time Source
YBCG METAR 2022/08/16 19:00 UTC NOAA

YBCG 161900Z AUTO 20007KT 9999 // NCD 12/06 Q1014 RF00.0/000.0


Station Type Date Time Source
YBCG Decoded METAR 2022/08/16 19:00 UTC NOAA

Coolangatta Airport Aws, Australia (YBCG) 28-10S 153-30E 6M
Aug 16, 2022 - 03:00 PM EDT / 2022.08.16 1900 UTC
Wind: from the SSW (200 degrees) at 8 MPH (7 KT):0
Visibility: greater than 7 mile(s):0
Temperature: 53 F (12 C)
Dew Point: 42 F (6 C)
Relative Humidity: 66%
Pressure (altimeter): 29.94 in. Hg (1014 hPa)
ob: YBCG 161900Z AUTO 20007KT 9999 // NCD 12/06 Q1014 RF00.0/000.0
cycle: 19

Station Type Date Time Source
YBCG TAF 2022/08/16 18:36 UTC NOAA

TAF YBCG 161703Z 1618/1718 20008KT CAVOK
FM162300 18013KT 9999 SCT045
FM171000 22005KT CAVOK

Example: see airport list